createdAt,value
2018-06-29T00:02:07.979Z,5.37
2018-06-29T00:04:34.902Z,4.83
2018-06-29T00:07:01.714Z,4.80
2018-06-29T00:09:28.545Z,5.65
2018-06-29T00:11:55.362Z,4.78
2018-06-29T00:14:22.256Z,6.10
2018-06-29T00:16:49.070Z,5.30
2018-06-29T00:19:15.903Z,4.60
2018-06-29T00:21:42.751Z,4.80
2018-06-29T00:24:09.639Z,4.63
2018-06-29T00:26:36.463Z,5.27
2018-06-29T00:29:03.285Z,5.90
2018-06-29T00:31:30.114Z,5.08
2018-06-29T00:33:57.009Z,4.60
2018-06-29T00:36:23.834Z,5.00
2018-06-29T00:38:50.643Z,5.27
2018-06-29T00:41:17.535Z,4.73
2018-06-29T00:43:44.361Z,5.20
2018-06-29T00:46:11.186Z,5.10
2018-06-29T00:48:38.042Z,4.33
2018-06-29T00:51:04.871Z,4.87
2018-06-29T00:53:31.698Z,4.47
2018-06-29T00:55:58.534Z,5.53
2018-06-29T00:58:25.352Z,4.12
2018-06-29T01:00:52.557Z,4.80
2018-06-29T01:03:19.293Z,5.20
2018-06-29T01:05:46.167Z,4.30
2018-06-29T01:08:13.021Z,7.70
2018-06-29T01:10:39.843Z,4.57
2018-06-29T01:13:06.676Z,5.10
2018-06-29T01:15:33.543Z,4.60
2018-06-29T01:18:00.366Z,8.23
2018-06-29T01:20:27.192Z,4.60
2018-06-29T01:22:54.110Z,5.17
2018-06-29T01:25:21.121Z,5.08
2018-06-29T01:27:47.943Z,4.37
2018-06-29T01:30:14.766Z,4.87
2018-06-29T01:32:41.589Z,4.80
2018-06-29T01:35:08.489Z,4.20
2018-06-29T01:37:35.320Z,5.27
2018-06-29T01:40:02.137Z,4.57
2018-06-29T01:42:28.964Z,4.57
2018-06-29T01:44:55.847Z,5.03
2018-06-29T01:47:22.669Z,5.85
2018-06-29T01:49:49.515Z,4.70
2018-06-29T01:52:16.398Z,4.10
2018-06-29T01:54:43.225Z,4.63
2018-06-29T01:57:10.052Z,5.17
2018-06-29T01:59:36.875Z,4.90
2018-06-29T02:02:03.698Z,4.60
2018-06-29T02:04:30.603Z,4.93
2018-06-29T02:06:57.450Z,4.50
2018-06-29T02:09:24.267Z,4.97
2018-06-29T02:11:51.095Z,4.97
2018-06-29T02:14:17.973Z,4.22
2018-06-29T02:16:44.799Z,4.25
2018-06-29T02:19:11.622Z,5.00
2018-06-29T02:21:38.451Z,5.30
2018-06-29T02:24:05.342Z,4.73
2018-06-29T02:26:32.161Z,4.30
2018-06-29T02:28:58.991Z,4.57
2018-06-29T02:31:25.829Z,4.67
2018-06-29T02:33:52.717Z,4.27
2018-06-29T02:36:19.541Z,4.50
2018-06-29T02:38:46.379Z,4.42
2018-06-29T02:41:13.199Z,5.23
2018-06-29T02:43:40.086Z,4.70
2018-06-29T02:46:06.912Z,4.43
2018-06-29T02:48:33.729Z,4.40
2018-06-29T02:51:00.551Z,4.70
2018-06-29T02:53:27.373Z,5.07
2018-06-29T02:55:54.590Z,4.80
2018-06-29T02:58:21.316Z,4.50
2018-06-29T03:00:48.140Z,3.90
2018-06-29T03:03:14.961Z,4.75
2018-06-29T03:05:41.879Z,4.83
2018-06-29T03:08:08.707Z,4.47
2018-06-29T03:10:35.524Z,6.33
2018-06-29T03:13:02.346Z,4.30
2018-06-29T03:15:29.250Z,4.10
2018-06-29T03:17:56.082Z,4.77
2018-06-29T03:20:22.966Z,5.40
2018-06-29T03:22:49.817Z,4.60
2018-06-29T03:25:16.631Z,4.67
2018-06-29T03:27:43.438Z,4.60
2018-06-29T03:30:10.315Z,4.70
2018-06-29T03:32:37.154Z,4.37
2018-06-29T03:35:03.983Z,5.00
2018-06-29T03:37:30.813Z,4.73
2018-06-29T03:39:57.629Z,5.70
2018-06-29T03:42:24.466Z,4.90
2018-06-29T03:44:51.371Z,4.90
2018-06-29T03:47:18.198Z,4.03
2018-06-29T03:49:45.020Z,4.33
2018-06-29T03:52:11.850Z,4.47
2018-06-29T03:54:38.740Z,4.37
2018-06-29T03:57:05.556Z,4.57
2018-06-29T03:59:32.377Z,4.90
2018-06-29T04:01:59.221Z,6.80
2018-06-29T04:04:26.108Z,4.87
2018-06-29T04:06:53.054Z,5.20
2018-06-29T04:09:19.867Z,4.97
2018-06-29T04:11:46.717Z,4.28
2018-06-29T04:14:13.682Z,4.40
2018-06-29T04:16:40.519Z,4.75
2018-06-29T04:19:07.359Z,4.70
2018-06-29T04:21:34.170Z,4.60
2018-06-29T04:24:01.054Z,9.50
2018-06-29T04:26:27.891Z,5.00
2018-06-29T04:28:54.717Z,6.63
2018-06-29T04:31:21.578Z,12.47
2018-06-29T04:33:48.390Z,6.83
2018-06-29T04:36:15.231Z,4.77
2018-06-29T04:38:42.060Z,5.50
2018-06-29T04:41:08.866Z,5.97
2018-06-29T04:43:36.083Z,11.77
2018-06-29T04:46:02.821Z,6.70
2018-06-29T04:48:29.691Z,5.15
2018-06-29T04:50:56.502Z,7.53
2018-06-29T04:53:24.498Z,6.20
2018-06-29T04:55:51.441Z,6.87
2018-06-29T04:58:18.265Z,9.10
2018-06-29T05:00:45.181Z,5.20
2018-06-29T05:03:11.981Z,5.78
2018-06-29T05:05:38.823Z,9.70
2018-06-29T05:08:05.649Z,7.83
2018-06-29T05:10:32.471Z,10.63
2018-06-29T05:12:59.299Z,11.50
2018-06-29T05:15:26.190Z,12.30
2018-06-29T05:17:53.015Z,11.60
2018-06-29T05:20:19.842Z,15.23
2018-06-29T05:22:46.716Z,17.90
2018-06-29T05:25:14.090Z,13.60
2018-06-29T05:27:40.836Z,15.13
2018-06-29T05:30:07.654Z,14.58
2018-06-29T05:32:34.508Z,14.83
2018-06-29T05:35:01.347Z,16.40
2018-06-29T05:37:28.165Z,16.07
2018-06-29T05:39:55.000Z,17.43
2018-06-29T05:42:21.848Z,12.80
2018-06-29T05:44:48.716Z,13.20
2018-06-29T05:47:16.009Z,15.90
2018-06-29T05:49:42.813Z,12.77
2018-06-29T05:52:09.645Z,12.40
2018-06-29T05:54:36.505Z,14.10
2018-06-29T05:57:03.339Z,12.73
2018-06-29T05:59:30.170Z,13.98
2018-06-29T06:01:57.016Z,17.32
2018-06-29T06:04:23.866Z,17.17
2018-06-29T06:06:50.690Z,12.67
2018-06-29T06:09:17.545Z,14.90
2018-06-29T06:11:44.369Z,17.73
2018-06-29T06:14:11.238Z,13.00
2018-06-29T06:16:38.077Z,16.73
2018-06-29T06:19:04.894Z,13.20
2018-06-29T06:21:31.720Z,13.77
2018-06-29T06:23:58.613Z,13.53
2018-06-29T06:26:25.431Z,17.02
2018-06-29T06:28:52.258Z,16.95
2018-06-29T06:31:19.096Z,13.33
2018-06-29T06:33:45.981Z,16.60
2018-06-29T06:36:12.807Z,17.03
2018-06-29T06:38:39.672Z,19.27
2018-06-29T06:41:06.496Z,16.63
2018-06-29T06:43:33.327Z,16.53
2018-06-29T06:46:00.152Z,13.62
2018-06-29T06:48:26.972Z,14.43
2018-06-29T06:50:53.801Z,15.13
2018-06-29T06:53:21.014Z,15.43
2018-06-29T06:55:47.775Z,18.40
2018-06-29T06:58:14.614Z,15.60
2018-06-29T07:00:41.455Z,12.60
2018-06-29T07:03:08.277Z,13.20
2018-06-29T07:05:35.143Z,15.17
2018-06-29T07:08:01.958Z,13.37
2018-06-29T07:10:28.780Z,12.85
2018-06-29T07:12:55.611Z,13.03
2018-06-29T07:15:22.524Z,11.60
2018-06-29T07:17:49.355Z,11.33
2018-06-29T07:20:16.198Z,13.40
2018-06-29T07:22:43.037Z,13.03
2018-06-29T07:25:09.910Z,18.53
2018-06-29T07:27:36.739Z,17.60
2018-06-29T07:30:03.660Z,19.10
2018-06-29T07:32:30.480Z,13.80
2018-06-29T07:34:57.461Z,12.37
2018-06-29T07:37:24.408Z,17.10
2018-06-29T07:39:51.244Z,14.90
2018-06-29T07:42:18.063Z,18.80
2018-06-29T07:44:45.047Z,10.93
2018-06-29T07:47:12.671Z,16.67
2018-06-29T07:49:39.481Z,16.40
2018-06-29T07:52:06.298Z,12.45
2018-06-29T07:54:33.337Z,12.03
2018-06-29T07:57:00.137Z,14.30
2018-06-29T07:59:26.975Z,13.15
2018-06-29T08:01:53.797Z,14.57
2018-06-29T08:04:20.815Z,18.53
2018-06-29T08:06:47.649Z,10.37
2018-06-29T08:09:14.466Z,14.30
2018-06-29T08:11:41.307Z,11.60
2018-06-29T08:14:08.180Z,9.40
2018-06-29T08:16:34.986Z,10.30
2018-06-29T08:19:01.871Z,8.85
2018-06-29T08:21:28.697Z,9.73
2018-06-29T08:23:55.542Z,13.40
2018-06-29T08:26:22.358Z,11.50
2018-06-29T08:28:49.194Z,7.57
2018-06-29T08:31:16.027Z,21.03
2018-06-29T08:33:42.861Z,7.93
2018-06-29T08:36:09.691Z,8.55
2018-06-29T08:38:36.549Z,15.65
2018-06-29T08:41:03.349Z,19.03
2018-06-29T08:43:30.173Z,9.37
2018-06-29T08:45:56.998Z,13.27
2018-06-29T08:48:23.831Z,12.03
2018-06-29T08:50:50.645Z,8.47
2018-06-29T08:53:17.471Z,11.37
2018-06-29T08:55:44.306Z,10.35
2018-06-29T08:58:11.143Z,8.20
2018-06-29T09:00:37.982Z,13.58
2018-06-29T09:03:04.808Z,9.58
2018-06-29T09:05:31.718Z,10.20
2018-06-29T09:07:58.514Z,9.83
2018-06-29T09:10:25.353Z,7.93
2018-06-29T09:12:52.201Z,12.03
2018-06-29T09:15:19.049Z,7.30
2018-06-29T09:17:45.877Z,11.97
2018-06-29T09:20:12.703Z,18.10
2018-06-29T09:22:39.530Z,10.32
2018-06-29T09:25:06.426Z,10.93
2018-06-29T09:27:33.233Z,8.13
2018-06-29T09:30:00.093Z,6.90
2018-06-29T09:32:26.891Z,10.20
2018-06-29T09:34:53.785Z,6.90
2018-06-29T09:37:20.606Z,10.63
2018-06-29T09:39:47.447Z,8.30
2018-06-29T09:42:14.273Z,6.95
2018-06-29T09:44:41.172Z,7.72
2018-06-29T09:47:07.991Z,9.10
2018-06-29T09:49:34.814Z,6.80
2018-06-29T09:52:01.647Z,10.43
2018-06-29T09:54:28.529Z,7.87
2018-06-29T09:56:55.352Z,6.87
2018-06-29T09:59:22.172Z,6.90
2018-06-29T10:01:49.058Z,9.00
2018-06-29T10:04:15.902Z,6.83
2018-06-29T10:06:42.725Z,7.17
2018-06-29T10:09:09.557Z,7.17
2018-06-29T10:11:36.430Z,8.28
2018-06-29T10:14:03.285Z,7.30
2018-06-29T10:16:30.114Z,10.03
2018-06-29T10:18:56.947Z,8.10
2018-06-29T10:21:23.759Z,6.77
2018-06-29T10:23:50.659Z,7.67
2018-06-29T10:26:17.475Z,6.60
2018-06-29T10:28:44.300Z,7.03
2018-06-29T10:31:11.121Z,6.85
2018-06-29T10:33:37.931Z,6.55
2018-06-29T10:36:04.829Z,6.50
2018-06-29T10:38:31.589Z,7.27
2018-06-29T10:40:58.410Z,6.57
2018-06-29T10:43:25.240Z,6.80
2018-06-29T10:45:52.055Z,6.40
2018-06-29T10:48:18.875Z,6.78
2018-06-29T10:50:45.724Z,6.90
2018-06-29T10:53:12.554Z,6.57
2018-06-29T10:55:39.395Z,6.60
2018-06-29T10:58:06.219Z,7.83
2018-06-29T11:00:33.035Z,6.33
2018-06-29T11:02:59.864Z,8.03
2018-06-29T11:05:26.838Z,6.77
2018-06-29T11:07:53.652Z,6.10
2018-06-29T11:10:20.466Z,7.20
2018-06-29T11:12:47.294Z,6.20
2018-06-29T11:15:14.146Z,7.50
2018-06-29T11:17:40.982Z,7.65
2018-06-29T11:20:09.025Z,6.33
2018-06-29T11:22:35.875Z,6.17
2018-06-29T11:25:02.744Z,6.40
2018-06-29T11:27:29.561Z,5.60
2018-06-29T11:29:56.393Z,6.72
2018-06-29T11:32:23.733Z,6.60
2018-06-29T11:34:50.729Z,6.70
2018-06-29T11:37:17.566Z,6.83
2018-06-29T11:39:44.385Z,6.42
2018-06-29T11:42:11.224Z,6.67
2018-06-29T11:44:38.104Z,6.97
2018-06-29T11:47:04.922Z,6.80
2018-06-29T11:49:31.784Z,6.67
2018-06-29T11:51:58.594Z,7.77
2018-06-29T11:54:25.473Z,6.13
2018-06-29T11:56:52.303Z,6.73
2018-06-29T11:59:19.135Z,7.80
2018-06-29T12:01:45.969Z,5.85
2018-06-29T12:04:12.843Z,6.00
2018-06-29T12:06:39.672Z,6.80
2018-06-29T12:09:06.488Z,6.37
2018-06-29T12:11:33.306Z,6.00
2018-06-29T12:14:00.221Z,6.23
2018-06-29T12:16:27.047Z,6.20
2018-06-29T12:18:53.875Z,5.43
2018-06-29T12:21:20.696Z,6.17
2018-06-29T12:23:47.587Z,5.37
2018-06-29T12:26:14.399Z,5.83
2018-06-29T12:28:41.256Z,5.70
2018-06-29T12:31:08.084Z,6.33
2018-06-29T12:33:34.908Z,6.37
2018-06-29T12:36:01.745Z,6.30
2018-06-29T12:38:28.568Z,6.50
2018-06-29T12:40:55.482Z,5.37
2018-06-29T12:43:22.300Z,5.97
2018-06-29T12:45:49.135Z,6.43
2018-06-29T12:48:16.014Z,5.58
2018-06-29T12:50:42.841Z,5.55
2018-06-29T12:53:09.670Z,7.92
2018-06-29T12:55:36.555Z,6.73
2018-06-29T12:58:03.386Z,6.50
2018-06-29T13:00:30.212Z,6.00
2018-06-29T13:02:57.044Z,5.67
2018-06-29T13:05:24.047Z,6.60
2018-06-29T13:07:50.734Z,6.87
2018-06-29T13:10:17.573Z,6.42
2018-06-29T13:12:44.392Z,6.42
2018-06-29T13:15:11.282Z,6.93
2018-06-29T13:17:38.098Z,6.57
2018-06-29T13:20:04.919Z,6.57
2018-06-29T13:22:31.741Z,7.00
2018-06-29T13:24:59.066Z,6.90
2018-06-29T13:27:25.710Z,6.30
2018-06-29T13:29:52.549Z,6.60
2018-06-29T13:32:20.030Z,6.23
2018-06-29T13:34:46.847Z,6.30
2018-06-29T13:37:13.659Z,5.53
2018-06-29T13:39:40.482Z,5.80
2018-06-29T13:42:07.312Z,6.50
2018-06-29T13:44:34.214Z,6.40
2018-06-29T13:47:01.046Z,6.58
2018-06-29T13:49:27.870Z,6.15
2018-06-29T13:51:54.685Z,6.40
2018-06-29T13:54:21.588Z,5.80
2018-06-29T13:56:48.414Z,5.63
2018-06-29T13:59:15.242Z,6.00
2018-06-29T14:01:42.119Z,6.27
2018-06-29T14:04:08.970Z,6.27
2018-06-29T14:06:35.826Z,6.30
2018-06-29T14:09:02.718Z,6.30
2018-06-29T14:11:29.533Z,6.53
2018-06-29T14:13:56.539Z,6.40
2018-06-29T14:16:23.380Z,6.03
2018-06-29T14:18:50.204Z,5.80
2018-06-29T14:21:17.031Z,5.80
2018-06-29T14:23:43.852Z,6.40
2018-06-29T14:26:10.694Z,5.80
2018-06-29T14:28:37.601Z,6.00
2018-06-29T14:31:04.419Z,6.87
2018-06-29T14:33:31.239Z,6.40
2018-06-29T14:35:58.065Z,6.13
2018-06-29T14:38:24.899Z,6.25
2018-06-29T14:40:51.755Z,6.47
2018-06-29T14:43:18.544Z,6.50
2018-06-29T14:45:45.396Z,6.47
2018-06-29T14:48:12.214Z,6.10
2018-06-29T14:50:39.033Z,5.90
2018-06-29T14:53:05.856Z,6.13
2018-06-29T14:55:32.872Z,6.03
2018-06-29T14:57:59.692Z,5.80
2018-06-29T15:00:26.579Z,6.03
2018-06-29T15:02:53.433Z,5.92
2018-06-29T15:05:20.249Z,6.33
2018-06-29T15:07:47.075Z,6.23
2018-06-29T15:10:13.899Z,5.80
2018-06-29T15:12:40.730Z,5.63
2018-06-29T15:15:07.627Z,6.30
2018-06-29T15:17:34.465Z,6.00
2018-06-29T15:20:01.295Z,6.43
2018-06-29T15:22:28.128Z,5.72
2018-06-29T15:24:54.981Z,5.43
2018-06-29T15:27:21.824Z,6.10
2018-06-29T15:29:48.662Z,5.97
2018-06-29T15:32:16.579Z,5.72
2018-06-29T15:34:43.382Z,8.90
2018-06-29T15:37:10.224Z,6.22
2018-06-29T15:39:37.040Z,6.40
2018-06-29T15:42:03.878Z,6.07
2018-06-29T15:44:30.773Z,8.87
2018-06-29T15:46:57.590Z,8.50
2018-06-29T15:49:24.415Z,11.80
2018-06-29T15:51:51.249Z,12.93
2018-06-29T15:54:18.117Z,6.70
2018-06-29T15:56:44.957Z,6.00
2018-06-29T15:59:11.801Z,7.05
2018-06-29T16:01:38.621Z,6.33
2018-06-29T16:04:05.496Z,5.70
2018-06-29T16:06:32.314Z,6.53
2018-06-29T16:08:59.600Z,6.17
2018-06-29T16:11:26.439Z,5.90
2018-06-29T16:13:53.284Z,6.27
2018-06-29T16:16:20.097Z,6.63
2018-06-29T16:18:46.925Z,6.30
2018-06-29T16:21:13.758Z,8.93
2018-06-29T16:23:40.566Z,5.93
2018-06-29T16:26:07.393Z,6.55
2018-06-29T16:28:34.218Z,6.40
2018-06-29T16:31:01.041Z,6.17
2018-06-29T16:33:27.874Z,6.20
2018-06-29T16:35:54.702Z,5.60
2018-06-29T16:38:21.520Z,8.53
2018-06-29T16:40:48.349Z,11.37
2018-06-29T16:43:15.169Z,9.65
2018-06-29T16:45:42.032Z,15.47
2018-06-29T16:48:08.859Z,13.15
2018-06-29T16:50:36.048Z,11.75
2018-06-29T16:53:02.818Z,21.90
2018-06-29T16:55:29.818Z,35.90
2018-06-29T16:57:56.641Z,61.68
2018-06-29T17:00:23.470Z,45.75
2018-06-29T17:02:50.313Z,33.93
2018-06-29T17:05:17.185Z,26.60
2018-06-29T17:07:44.033Z,23.37
2018-06-29T17:10:11.473Z,30.93
2018-06-29T17:12:38.268Z,20.55
2018-06-29T17:15:05.823Z,20.33
2018-06-29T17:17:32.626Z,17.80
2018-06-29T17:19:59.486Z,15.30
2018-06-29T17:22:26.286Z,17.23
2018-06-29T17:24:53.203Z,14.60
2018-06-29T17:27:19.979Z,20.07
2018-06-29T17:29:46.808Z,21.10
2018-06-29T17:32:13.630Z,16.67
2018-06-29T17:34:40.543Z,18.23
2018-06-29T17:37:07.355Z,17.83
2018-06-29T17:39:34.203Z,15.90
2018-06-29T17:42:01.021Z,15.63
2018-06-29T17:44:27.906Z,14.80
2018-06-29T17:46:54.733Z,19.73
2018-06-29T17:49:21.558Z,28.73
2018-06-29T17:51:48.425Z,19.97
2018-06-29T17:54:15.266Z,16.37
2018-06-29T17:56:42.104Z,22.60
2018-06-29T17:59:08.942Z,29.77
2018-06-29T18:01:35.795Z,18.02
2018-06-29T18:04:02.645Z,21.12
2018-06-29T18:06:29.476Z,21.67
2018-06-29T18:08:56.301Z,19.93
2018-06-29T18:11:23.164Z,17.67
2018-06-29T18:13:50.019Z,28.17
2018-06-29T18:16:16.947Z,34.37
2018-06-29T18:18:43.720Z,26.40
2018-06-29T18:21:10.568Z,25.47
2018-06-29T18:23:37.404Z,24.52
2018-06-29T18:26:04.241Z,22.90
2018-06-29T18:28:31.069Z,26.10
2018-06-29T18:30:57.912Z,25.92
2018-06-29T18:33:24.738Z,28.30
2018-06-29T18:35:51.568Z,21.97
2018-06-29T18:38:18.471Z,25.13
2018-06-29T18:40:45.274Z,22.23
2018-06-29T18:43:12.917Z,29.23
2018-06-29T18:45:39.794Z,25.43
2018-06-29T18:48:06.723Z,22.37
2018-06-29T18:50:34.379Z,18.80
2018-06-29T18:53:01.165Z,23.73
2018-06-29T18:55:28.268Z,23.27
2018-06-29T18:57:55.228Z,27.10
2018-06-29T19:00:22.183Z,24.47
2018-06-29T19:02:49.187Z,19.33
2018-06-29T19:05:16.302Z,26.57
2018-06-29T19:07:43.149Z,25.47
2018-06-29T19:10:09.980Z,17.12
2018-06-29T19:12:37.203Z,19.85
2018-06-29T19:15:04.181Z,17.80
2018-06-29T19:17:32.067Z,15.73
2018-06-29T19:19:59.496Z,17.50
2018-06-29T19:22:26.533Z,18.50
2018-06-29T19:24:53.376Z,16.37
2018-06-29T19:27:20.206Z,21.12
2018-06-29T19:29:47.062Z,17.30
2018-06-29T19:32:13.923Z,17.07
2018-06-29T19:34:41.282Z,15.97
2018-06-29T19:37:08.021Z,17.07
2018-06-29T19:39:35.165Z,16.67
2018-06-29T19:42:02.077Z,15.48
2018-06-29T19:44:30.390Z,16.10
2018-06-29T19:46:57.089Z,14.83
2018-06-29T19:49:23.923Z,19.45
2018-06-29T19:51:50.809Z,15.13
2018-06-29T19:54:17.770Z,15.23
2018-06-29T19:56:44.630Z,14.90
2018-06-29T19:59:11.805Z,13.17
2018-06-29T20:01:38.624Z,13.70
2018-06-29T20:04:05.525Z,13.55
2018-06-29T20:06:32.409Z,15.10
2018-06-29T20:08:59.245Z,13.53
2018-06-29T20:11:26.120Z,15.40
2018-06-29T20:13:53.108Z,19.27
2018-06-29T20:16:19.964Z,15.90
2018-06-29T20:18:46.826Z,13.37
2018-06-29T20:21:13.673Z,13.27
2018-06-29T20:23:41.438Z,13.57
2018-06-29T20:26:08.415Z,13.10
2018-06-29T20:28:35.681Z,13.20
2018-06-29T20:31:02.536Z,14.70
2018-06-29T20:33:29.388Z,21.35
2018-06-29T20:35:56.232Z,23.10
2018-06-29T20:38:23.089Z,16.53
2018-06-29T20:40:49.890Z,15.57
2018-06-29T20:43:16.720Z,20.30
2018-06-29T20:45:43.699Z,18.60
2018-06-29T20:48:10.511Z,18.87
2018-06-29T20:50:37.366Z,12.77
2018-06-29T20:53:04.506Z,16.67
2018-06-29T20:55:31.685Z,18.67
2018-06-29T20:57:58.729Z,14.40
2018-06-29T21:00:25.568Z,19.90
2018-06-29T21:02:52.419Z,12.50
2018-06-29T21:05:19.258Z,12.00
2018-06-29T21:07:46.101Z,12.37
2018-06-29T21:10:13.155Z,11.13
2018-06-29T21:12:40.009Z,11.53
2018-06-29T21:15:07.047Z,14.23
2018-06-29T21:17:34.300Z,10.30
2018-06-29T21:20:01.128Z,16.73
2018-06-29T21:22:27.965Z,11.53
2018-06-29T21:24:54.906Z,11.93
2018-06-29T21:27:21.723Z,10.70
2018-06-29T21:29:48.558Z,12.23
2018-06-29T21:32:15.406Z,11.50
2018-06-29T21:34:42.396Z,10.18
2018-06-29T21:37:09.209Z,11.35
2018-06-29T21:39:36.039Z,11.33
2018-06-29T21:42:02.872Z,11.27
2018-06-29T21:44:29.806Z,9.93
2018-06-29T21:46:56.616Z,12.67
2018-06-29T21:49:23.690Z,11.27
2018-06-29T21:51:50.562Z,10.30
2018-06-29T21:54:18.134Z,9.70
2018-06-29T21:56:45.350Z,10.37
2018-06-29T21:59:12.060Z,9.88
2018-06-29T22:01:38.882Z,10.80
2018-06-29T22:04:06.064Z,9.03
2018-06-29T22:06:32.895Z,10.03
2018-06-29T22:08:59.744Z,9.80
2018-06-29T22:11:26.565Z,9.37
2018-06-29T22:13:53.532Z,9.27
2018-06-29T22:16:20.350Z,9.30
2018-06-29T22:18:47.190Z,9.73
2018-06-29T22:21:14.013Z,9.23
2018-06-29T22:23:40.846Z,9.17
2018-06-29T22:26:07.690Z,9.73
2018-06-29T22:28:34.505Z,9.70
2018-06-29T22:31:01.338Z,9.40
2018-06-29T22:33:28.160Z,10.87
2018-06-29T22:35:54.986Z,8.43
2018-06-29T22:38:21.829Z,8.97
2018-06-29T22:40:48.651Z,8.73
2018-06-29T22:43:15.499Z,9.70
2018-06-29T22:45:42.471Z,9.48
2018-06-29T22:48:09.313Z,9.70
2018-06-29T22:50:36.127Z,10.05
2018-06-29T22:53:02.955Z,8.65
2018-06-29T22:55:29.852Z,9.23
2018-06-29T22:57:56.666Z,9.00
2018-06-29T23:00:23.500Z,9.27
2018-06-29T23:02:50.318Z,8.87
2018-06-29T23:05:17.226Z,8.90
2018-06-29T23:07:44.052Z,8.80
2018-06-29T23:10:10.874Z,8.33
2018-06-29T23:12:37.703Z,8.23
2018-06-29T23:15:04.590Z,9.20
2018-06-29T23:17:31.420Z,8.50
2018-06-29T23:19:58.235Z,9.13
2018-06-29T23:22:25.068Z,9.60
2018-06-29T23:24:51.971Z,8.60
2018-06-29T23:27:18.791Z,8.60
2018-06-29T23:29:45.633Z,8.00
2018-06-29T23:32:12.943Z,8.33
2018-06-29T23:34:39.756Z,8.30
2018-06-29T23:37:06.568Z,8.57
2018-06-29T23:39:33.402Z,9.58
2018-06-29T23:42:00.239Z,8.60
2018-06-29T23:44:27.108Z,9.30
2018-06-29T23:46:53.933Z,8.80
2018-06-29T23:49:20.758Z,8.97
2018-06-29T23:51:47.584Z,8.43
2018-06-29T23:54:14.489Z,8.47
2018-06-29T23:56:41.293Z,8.90
2018-06-29T23:59:08.210Z,9.70
